»·PEaware :: N545ST KMHV-KSBD

N545ST :: KMHV-KSBD

FLIGHT INFORMATION

Flight Status: Arrived
Operator: Privately registered:
United States
More flights under this callsign
Pilot: Stan D. (19319)
Aircraft: BEECH AIRCRAFT A90-E90 KING AIR
(BE9L)
More flights by this aircraft type
Origin: KMHV Mojave
United States
Destination: KSBD San Bernardino Intl
United States
More flights between these airports :: More routes between these airports
Route: +PMD
File this flight plan on PilotEdge
Remarks: CAT-06
Altitude:
(Current/Filed)
11,500ft
Speed:
(Current/Filed)
207kts
Departed: 08-Sep-18 04:12 PM
Arrived: 08-Sep-18 04:43 PM
Distance/Time
Traveled:
74nm/0:31
Distance/Time
To Go:
Arrived

Flight Plot

Page will automatically refresh every two minutes.


Map Options




Map Legend


Flown Route
Filed Route
Departure Airport
Arrival Airport
Navaid (VOR, NDB)
Fix

Horizontal Profiles

Position Reports

Time Latitude Longitude Heading Altitude Ground
Speed
08-Sep-18 15:54 35.056974 -118.150442 95 2745ft 0kts
08-Sep-18 15:55 35.056974 -118.150442 95 2745ft 0kts
08-Sep-18 15:56 35.056974 -118.150442 95 2745ft 0kts
08-Sep-18 15:57 35.056974 -118.150442 95 2745ft 0kts
08-Sep-18 15:58 35.056974 -118.150442 95 2745ft 0kts
08-Sep-18 15:59 35.056974 -118.150442 95 2745ft 0kts
08-Sep-18 16:00 35.056974 -118.150442 95 2745ft 0kts
08-Sep-18 16:01 35.056974 -118.150442 95 2745ft 0kts
08-Sep-18 16:02 35.056974 -118.150442 95 2745ft 0kts
08-Sep-18 16:03 35.056974 -118.150442 95 2745ft 0kts
08-Sep-18 16:04 35.056974 -118.150442 95 2745ft 0kts
08-Sep-18 16:05 35.056974 -118.150442 95 2745ft 0kts
08-Sep-18 16:06 35.056974 -118.150442 95 2745ft 0kts
08-Sep-18 16:07 35.056974 -118.150442 95 2745ft 0kts
08-Sep-18 16:08 35.056974 -118.150442 95 2745ft 0kts
08-Sep-18 16:09 35.056974 -118.150442 95 2745ft 0kts
08-Sep-18 16:10 35.057129 -118.149655 69 2743ft 20kts
08-Sep-18 16:11 35.057636 -118.142906 65 2730ft 17kts
08-Sep-18 16:12 35.058235 -118.142620 0 2730ft 0kts
08-Sep-18 16:13 35.058981 -118.142781 315 2732ft 11kts
08-Sep-18 16:14 35.058112 -118.164661 257 2941ft 104kts
08-Sep-18 16:15 35.030733 -118.168573 153 3571ft 135kts
08-Sep-18 16:16 34.999073 -118.144511 173 4169ft 132kts
08-Sep-18 16:17 34.964433 -118.130291 165 4761ft 134kts
08-Sep-18 16:18 34.928514 -118.119542 171 5471ft 134kts
08-Sep-18 16:19 34.892433 -118.109013 164 6414ft 138kts
08-Sep-18 16:20 34.859662 -118.095870 188 7359ft 131kts
08-Sep-18 16:21 34.822226 -118.104224 184 8148ft 137kts
08-Sep-18 16:22 34.784190 -118.094733 171 8880ft 147kts
08-Sep-18 16:23 34.742120 -118.086123 171 9486ft 161kts
08-Sep-18 16:24 34.697443 -118.077086 171 10079ft 168kts
08-Sep-18 16:25 34.651335 -118.067777 171 10672ft 170kts
08-Sep-18 16:26 34.614518 -118.036825 128 11287ft 169kts
08-Sep-18 16:27 34.584355 -117.990160 127 11571ft 184kts
08-Sep-18 16:28 34.551528 -117.938960 127 11582ft 199kts
08-Sep-18 16:29 34.517008 -117.885230 127 11572ft 205kts
08-Sep-18 16:30 34.481946 -117.830686 127 11558ft 206kts
08-Sep-18 16:31 34.446668 -117.775899 127 11556ft 206kts
08-Sep-18 16:32 34.411452 -117.721299 127 11560ft 206kts
08-Sep-18 16:33 34.376278 -117.666900 127 11566ft 206kts
08-Sep-18 16:34 34.339959 -117.610757 128 10921ft 223kts
08-Sep-18 16:35 34.301517 -117.551389 127 10003ft 228kts
08-Sep-18 16:36 34.263551 -117.492938 128 9052ft 214kts
08-Sep-18 16:37 34.229162 -117.440032 128 8294ft 183kts
08-Sep-18 16:38 34.198269 -117.389036 125 6529ft 196kts
08-Sep-18 16:39 34.170737 -117.340222 124 5751ft 167kts
08-Sep-18 16:40 34.147152 -117.296509 130 5198ft 159kts
08-Sep-18 16:41 34.131068 -117.249359 101 4639ft 159kts
08-Sep-18 16:42 34.117746 -117.198538 128 4247ft 143kts
08-Sep-18 16:43 34.100992 -117.179482 280 3405ft 141kts
08-Sep-18 16:44 34.100074 -117.218824 249 1188ft 90kts
08-Sep-18 16:45 34.099218 -117.225343 287 1142ft 0kts
08-Sep-18 16:46 34.101157 -117.224570 298 1146ft 7kts

Navigation Log

Ident Type
1. KMHV Airport
2. PMD Navaid
3. KSBD Airport